Time;durP1;ratioP1;P1;durP2;ratioP2;P2;SDS_P1;SDS_P2;PMS_P1;PMS_P2;Temp;Humidity;BMP_temperature;BMP_pressure;BME280_temperature;BME280_humidity;BME280_pressure;Samples;Min_cycle;Max_cycle;Signal;HPM_P1;HPM_P2
2022/09/20 00:01:09;;;;;;;3.17;0.82;;;9.60;99.90;;;;;;5038103;28;20045;-69
2022/09/20 00:03:39;;;;;;;1.08;0.50;;;9.60;99.90;;;;;;5038050;28;20044;-69
2022/09/20 00:06:11;;;;;;;2.55;0.60;;;9.60;99.90;;;;;;5021604;28;20543;-70
2022/09/20 00:08:38;;;;;;;2.92;0.57;;;9.50;99.90;;;;;;5021736;28;20080;-69
2022/09/20 00:11:06;;;;;;;2.90;0.77;;;9.50;99.90;;;;;;5037927;28;20029;-70
2022/09/20 00:13:34;;;;;;;2.72;0.68;;;9.60;99.90;;;;;;5021654;28;20128;-70
2022/09/20 00:16:05;;;;;;;2.42;0.52;;;9.50;99.90;;;;;;5037803;28;20107;-69
2022/09/20 00:18:31;;;;;;;;;;;9.40;99.90;;;;;;5038446;28;20041;-69
2022/09/20 00:20:56;;;;;;;4.30;0.63;;;9.40;99.90;;;;;;5019439;28;19924;-70
2022/09/20 00:23:22;;;;;;;1.10;0.52;;;9.30;99.90;;;;;;5041003;28;20051;-70
2022/09/20 00:25:59;;;;;;;0.55;0.45;;;9.30;99.90;;;;;;5040848;28;20048;-69
2022/09/20 00:28:26;;;;;;;0.93;0.60;;;9.60;99.90;;;;;;5057535;28;20040;-69
2022/09/20 00:30:53;;;;;;;4.43;0.70;;;9.30;99.90;;;;;;5057691;28;20480;-69
2022/09/20 00:33:20;;;;;;;1.27;0.45;;;9.20;99.90;;;;;;5057594;28;20076;-69
2022/09/20 00:35:46;;;;;;;1.38;0.77;;;9.50;99.90;;;;;;5057664;28;20476;-69
2022/09/20 00:38:13;;;;;;;3.75;0.50;;;9.30;99.90;;;;;;5057332;28;20036;-70
2022/09/20 00:40:41;;;;;;;0.40;0.40;;;9.20;99.90;;;;;;5040866;28;20119;-70
2022/09/20 00:43:09;;;;;;;0.90;0.50;;;9.40;99.90;;;;;;5057169;28;20056;-69
2022/09/20 00:45:35;;;;;;;0.75;0.40;;;9.10;99.90;;;;;;5056736;28;20049;-70
2022/09/20 00:48:12;;;;;;;2.00;0.47;;;9.10;99.90;;;;;;5024236;28;20488;-70
2022/09/20 00:51:03;;;;;;;1.52;0.32;;;9.10;99.90;;;;;;5057407;28;20481;-69
2022/09/20 00:53:37;;;;;;;;;;;9.00;99.90;;;;;;5040811;28;20036;-70
2022/09/20 00:56:16;;;;;;;1.05;0.57;;;9.00;99.90;;;;;;5040411;28;19920;-69
2022/09/20 00:59:17;;;;;;;2.40;0.70;;;9.00;99.90;;;;;;5057190;28;20552;-70
2022/09/20 01:01:45;;;;;;;1.08;0.40;;;8.90;99.90;;;;;;5040171;28;20040;-69
2022/09/20 01:04:14;;;;;;;1.67;0.47;;;8.90;99.90;;;;;;5040506;28;20078;-69
2022/09/20 01:06:43;;;;;;;0.70;0.52;;;8.90;99.90;;;;;;5056709;28;20048;-69
2022/09/20 01:09:09;;;;;;;4.55;0.38;;;8.90;99.90;;;;;;5040135;28;20044;-69
2022/09/20 01:11:36;;;;;;;3.63;0.95;;;8.90;99.90;;;;;;5040094;28;20105;-70
2022/09/20 01:14:02;;;;;;;2.40;0.40;;;8.80;99.90;;;;;;5056875;28;20480;-69
2022/09/20 01:16:30;;;;;;;2.03;0.52;;;8.80;99.90;;;;;;5056672;28;20044;-70
2022/09/20 01:19:04;;;;;;;1.15;0.52;;;8.80;99.90;;;;;;5039870;28;20083;-69
2022/09/20 01:21:30;;;;;;;1.48;0.47;;;8.80;99.90;;;;;;5056361;28;20139;-70
2022/09/20 01:24:04;;;;;;;4.75;0.50;;;8.80;99.90;;;;;;5023316;28;20109;-69
2022/09/20 01:27:14;;;;;;;1.48;0.50;;;8.80;99.90;;;;;;5056345;28;20045;-70
2022/09/20 01:30:08;;;;;;;3.85;0.73;;;8.80;99.90;;;;;;4976606;28;20073;-70
2022/09/20 01:33:00;;;;;;;1.65;0.45;;;8.80;99.90;;;;;;5045529;28;20040;-69
2022/09/20 01:35:27;;;;;;;;;;;8.80;99.90;;;;;;5056943;28;20101;-69
2022/09/20 01:38:20;;;;;;;2.28;0.60;;;8.80;99.90;;;;;;5039650;28;19982;-69
2022/09/20 01:41:15;;;;;;;1.98;0.35;;;8.70;99.90;;;;;;5039842;28;20399;-69
2022/09/20 01:43:51;;;;;;;1.00;0.38;;;8.70;99.90;;;;;;5045569;28;20516;-69
2022/09/20 01:46:31;;;;;;;1.33;0.57;;;8.60;99.90;;;;;;5056127;28;20122;-69
2022/09/20 01:49:31;;;;;;;4.35;0.65;;;8.70;99.90;;;;;;5055943;28;20036;-69
2022/09/20 01:52:10;;;;;;;0.85;0.52;;;8.60;99.90;;;;;;5024088;28;20093;-70
2022/09/20 01:54:56;;;;;;;4.32;0.52;;;9.80;99.90;;;;;;5055873;28;20043;-69
2022/09/20 01:57:56;;;;;;;3.50;0.80;;;8.50;99.90;;;;;;5055510;28;20123;-69
2022/09/20 02:00:30;;;;;;;3.58;0.63;;;8.60;99.90;;;;;;5056058;28;20040;-69
2022/09/20 02:03:11;;;;;;;3.00;0.57;;;8.50;99.90;;;;;;5056002;28;20086;-70
2022/09/20 02:05:58;;;;;;;3.75;0.60;;;8.50;99.90;;;;;;5055898;28;20377;-69
2022/09/20 02:08:48;;;;;;;2.22;0.60;;;8.50;99.90;;;;;;5039024;28;20040;-69
2022/09/20 02:11:24;;;;;;;1.30;0.68;;;8.50;99.90;;;;;;5038906;28;20032;-69
2022/09/20 02:14:11;;;;;;;0.93;0.40;;;8.50;99.90;;;;;;5038994;28;20052;-70
2022/09/20 02:17:03;;;;;;;1.10;0.55;;;8.50;99.90;;;;;;5039040;28;20048;-69
2022/09/20 02:20:00;;;;;;;1.00;0.47;;;8.50;99.90;;;;;;5055348;28;20072;-70
2022/09/20 02:22:37;;;;;;;2.08;0.50;;;8.50;99.90;;;;;;5055675;28;20392;-70
2022/09/20 02:25:45;;;;;;;2.90;0.77;;;8.50;99.90;;;;;;5038771;28;20040;-69
2022/09/20 02:28:36;;;;;;;2.25;0.57;;;8.40;99.90;;;;;;5055528;28;20374;-69
2022/09/20 02:31:47;;;;;;;1.65;0.40;;;8.40;99.90;;;;;;5055305;28;20040;-69
2022/09/20 02:34:25;;;;;;;5.28;0.60;;;8.40;99.90;;;;;;5038433;28;20139;-69
2022/09/20 02:37:13;;;;;;;2.40;0.60;;;8.40;99.90;;;;;;5038550;28;20040;-69
2022/09/20 02:39:51;;;;;;;0.50;0.40;;;8.30;99.90;;;;;;5038441;28;20043;-70
2022/09/20 02:42:24;;;;;;;0.68;0.40;;;8.40;99.90;;;;;;5055438;28;20040;-69
2022/09/20 02:45:03;;;;;;;1.20;0.43;;;8.40;99.90;;;;;;5038520;28;20036;-70
2022/09/20 02:47:42;;;;;;;1.40;0.60;;;8.30;99.90;;;;;;5055281;28;20040;-69
2022/09/20 02:50:42;;;;;;;4.18;0.75;;;8.30;99.90;;;;;;5055345;28;20449;-69
2022/09/20 02:53:42;;;;;;;2.88;0.65;;;8.30;99.90;;;;;;5055008;28;20079;-69
2022/09/20 02:56:33;;;;;;;0.88;0.50;;;8.30;99.90;;;;;;5022624;28;20059;-69
2022/09/20 02:59:21;;;;;;;0.43;0.40;;;8.30;99.90;;;;;;5055040;28;20040;-69
2022/09/20 03:02:08;;;;;;;2.28;0.82;;;8.30;99.90;;;;;;5038711;28;20040;-69
2022/09/20 03:04:55;;;;;;;1.30;0.40;;;8.30;99.90;;;;;;5054934;28;20040;-70
2022/09/20 03:07:40;;;;;;;3.13;0.50;;;8.20;99.90;;;;;;5031839;28;20194;-69
2022/09/20 03:10:36;;;;;;;1.13;0.40;;;8.20;99.90;;;;;;5041872;28;20511;-69
2022/09/20 03:13:13;;;;;;;2.13;0.57;;;8.20;99.90;;;;;;5048256;28;20047;-69
2022/09/20 03:16:04;;;;;;;1.88;0.40;;;8.20;99.90;;;;;;5058923;28;20373;-69
2022/09/20 03:19:10;;;;;;;2.25;0.82;;;8.20;99.90;;;;;;5058836;28;20033;-70
2022/09/20 03:21:59;;;;;;;0.77;0.38;;;8.90;99.90;;;;;;5059045;28;20388;-70
2022/09/20 03:24:37;;;;;;;0.30;0.30;;;8.20;99.90;;;;;;5059016;28;20464;-69
2022/09/20 03:27:18;;;;;;;1.70;0.75;;;8.30;99.90;;;;;;5058602;28;20048;-70
2022/09/20 03:29:58;;;;;;;0.38;0.35;;;8.30;99.90;;;;;;5042317;28;20040;-70
2022/09/20 03:33:16;;;;;;;2.42;0.47;;;8.60;99.90;;;;;;5058489;28;20047;-69
2022/09/20 03:36:02;;;;;;;3.67;0.85;;;8.30;99.90;;;;;;5040890;28;20449;-69
2022/09/20 03:39:06;;;;;;;0.60;0.40;;;8.30;99.90;;;;;;5058508;28;20044;-69
2022/09/20 03:41:44;;;;;;;0.40;0.40;;;8.30;99.90;;;;;;5058071;28;20056;-70
2022/09/20 03:44:19;;;;;;;0.30;0.30;;;8.30;99.90;;;;;;5058649;28;20044;-69
2022/09/20 03:46:47;;;;;;;0.20;0.20;;;8.30;99.90;;;;;;5041913;28;20484;-69
2022/09/20 03:49:54;;;;;;;3.67;0.40;;;8.30;99.90;;;;;;5041674;28;20041;-69
2022/09/20 03:52:42;;;;;;;1.75;0.50;;;8.30;99.90;;;;;;5048800;28;20495;-69
2022/09/20 03:55:22;;;;;;;0.52;0.45;;;8.30;99.90;;;;;;5058086;28;20032;-69
2022/09/20 03:57:53;;;;;;;1.00;0.55;;;8.30;99.90;;;;;;5041491;28;20044;-69
2022/09/20 04:00:22;;;;;;;;;;;8.50;99.90;;;;;;5058542;28;20047;-69
2022/09/20 04:03:13;;;;;;;3.30;0.47;;;8.40;99.90;;;;;;5041604;28;20364;-69
2022/09/20 04:06:17;;;;;;;0.63;0.55;;;8.40;99.90;;;;;;5041538;28;20430;-69
2022/09/20 04:09:00;;;;;;;1.98;0.52;;;8.40;99.90;;;;;;5049707;28;20484;-69
2022/09/20 04:11:36;;;;;;;1.67;0.68;;;8.40;99.90;;;;;;5041222;28;20040;-69
2022/09/20 04:14:20;;;;;;;0.85;0.60;;;8.40;99.90;;;;;;5041099;28;20044;-69
2022/09/20 04:17:20;;;;;;;1.17;0.32;;;8.40;99.90;;;;;;5041345;28;20044;-69
2022/09/20 04:19:55;;;;;;;1.75;0.40;;;8.40;99.90;;;;;;5057376;28;20087;-70
2022/09/20 04:22:25;;;;;;;0.43;0.43;;;9.20;99.90;;;;;;5057666;28;20508;-69
2022/09/20 04:25:12;;;;;;;4.90;0.95;;;8.50;99.90;;;;;;5057838;28;20484;-70
2022/09/20 04:27:50;;;;;;;1.55;0.50;;;8.50;99.90;;;;;;5057474;28;20110;-70
2022/09/20 04:30:21;;;;;;;0.63;0.50;;;8.50;99.90;;;;;;5057737;28;20498;-69
2022/09/20 04:33:12;;;;;;;1.38;0.60;;;8.50;99.90;;;;;;5041142;28;20408;-69
2022/09/20 04:38:39;;;;;;;1.63;0.87;;;8.60;99.90;;;;;;5057327;28;20044;-70
2022/09/20 04:41:29;;;;;;;0.77;0.75;;;8.50;99.90;;;;;;5040969;28;20089;-69
2022/09/20 04:44:29;;;;;;;0.53;0.50;;;8.60;99.90;;;;;;5040632;28;20045;-69
2022/09/20 04:47:14;;;;;;;0.82;0.40;;;8.60;99.90;;;;;;5040447;28;20052;-70
2022/09/20 04:49:54;;;;;;;2.55;0.60;;;8.70;99.90;;;;;;5040441;28;20036;-69
2022/09/20 04:52:23;;;;;;;6.82;0.85;;;8.70;99.90;;;;;;5057090;28;20037;-70
2022/09/20 04:55:13;;;;;;;3.33;0.85;;;8.70;99.90;;;;;;5057074;28;20044;-70
2022/09/20 04:58:20;;;;;;;2.33;0.50;;;8.80;99.90;;;;;;5057011;28;20128;-70
2022/09/20 05:00:58;;;;;;;0.50;0.40;;;8.80;99.90;;;;;;5046700;28;20314;-70
2022/09/20 05:03:23;;;;;;;1.88;0.57;;;9.10;99.90;;;;;;5056871;28;20036;-70
2022/09/20 05:06:01;;;;;;;2.97;0.57;;;9.00;99.90;;;;;;5056730;28;20052;-69
2022/09/20 05:09:00;;;;;;;0.93;0.40;;;8.90;99.90;;;;;;5057003;28;20549;-70
2022/09/20 05:11:47;;;;;;;1.75;0.50;;;9.00;99.90;;;;;;5056687;28;20051;-69
2022/09/20 05:14:23;;;;;;;2.08;0.50;;;9.00;99.90;;;;;;5056639;28;20117;-69
2022/09/20 05:16:52;;;;;;;1.17;0.50;;;9.00;99.90;;;;;;5056568;28;20084;-70
2022/09/20 05:19:27;;;;;;;2.20;0.40;;;9.10;99.90;;;;;;5056412;28;20115;-69
2022/09/20 05:22:05;;;;;;;0.40;0.40;;;9.10;99.90;;;;;;5056841;28;20048;-70
2022/09/20 05:24:42;;;;;;;0.50;0.50;;;9.20;99.90;;;;;;5039847;28;20036;-70
2022/09/20 05:27:38;;;;;;;0.90;0.57;;;10.10;99.90;;;;;;5056201;28;20049;-70
2022/09/20 05:30:15;;;;;;;4.30;0.50;;;9.20;99.90;;;;;;5056242;28;20492;-70
2022/09/20 05:32:43;;;;;;;1.65;0.70;;;9.20;99.90;;;;;;5055322;28;20033;-70
2022/09/20 05:35:33;;;;;;;1.17;0.63;;;9.20;99.90;;;;;;5056515;28;20039;-70
2022/09/20 05:38:12;;;;;;;1.80;0.77;;;9.20;99.90;;;;;;5039602;28;20036;-70
2022/09/20 05:41:07;;;;;;;2.60;0.73;;;9.30;99.90;;;;;;5056156;28;20041;-70
2022/09/20 05:43:38;;;;;;;0.47;0.40;;;9.30;99.90;;;;;;5056512;28;20063;-70
2022/09/20 05:46:33;;;;;;;1.00;0.50;;;9.30;99.90;;;;;;5039347;28;20120;-70
2022/09/20 05:49:03;;;;;;;1.15;0.65;;;9.40;99.90;;;;;;5056019;28;20044;-70
2022/09/20 05:51:46;;;;;;;0.40;0.40;;;9.40;99.90;;;;;;5056321;28;20048;-70
2022/09/20 05:54:30;;;;;;;0.60;0.40;;;9.50;99.90;;;;;;5055934;28;20094;-70
2022/09/20 05:57:13;;;;;;;0.82;0.55;;;9.60;99.90;;;;;;5055836;28;20048;-70
2022/09/20 06:00:03;;;;;;;3.38;0.60;;;9.60;99.90;;;;;;5039188;28;20041;-70
2022/09/20 06:03:01;;;;;;;1.80;0.60;;;9.70;99.90;;;;;;5055799;28;20045;-70
2022/09/20 06:05:33;;;;;;;0.35;0.35;;;;;;;;;;5055741;28;20071;-70
2022/09/20 06:08:19;;;;;;;0.47;0.40;;;9.90;99.90;;;;;;5039122;28;20051;-70
2022/09/20 06:11:06;;;;;;;1.65;0.50;;;9.90;99.90;;;;;;5015930;28;20553;-69
2022/09/20 06:14:02;;;;;;;0.77;0.40;;;10.00;99.90;;;;;;5055578;28;20036;-70
2022/09/20 06:16:46;;;;;;;0.32;0.32;;;10.00;99.90;;;;;;5055766;28;20044;-70
2022/09/20 06:19:54;;;;;;;5.93;2.13;;;10.00;99.90;;;;;;5055271;28;20094;-70
2022/09/20 06:22:49;;;;;;;0.30;0.30;;;10.10;99.90;;;;;;5018556;28;20053;-70
2022/09/20 06:25:29;;;;;;;1.75;0.60;;;10.10;99.90;;;;;;5055375;28;20094;-70
2022/09/20 06:28:12;;;;;;;2.33;0.40;;;10.10;99.90;;;;;;5055293;28;20127;-69
2022/09/20 06:30:56;;;;;;;0.95;0.40;;;10.20;99.90;;;;;;5055356;28;20047;-71
2022/09/20 06:33:26;;;;;;;3.08;0.52;;;10.20;99.90;;;;;;5055285;28;20048;-71
2022/09/20 06:41:35;;;;;;;1.65;0.63;;;10.20;99.90;;;;;;5055218;28;20040;-71
2022/09/20 06:44:02;;;;;;;2.65;0.60;;;10.30;99.90;;;;;;5054912;28;20045;-70
2022/09/20 06:46:33;;;;;;;2.63;0.65;;;10.30;99.90;;;;;;5038832;28;20549;-70
2022/09/20 06:48:59;;;;;;;1.27;0.40;;;10.30;99.90;;;;;;5055163;28;20040;-71
2022/09/20 06:51:28;;;;;;;0.50;0.40;;;10.20;99.90;;;;;;5038588;28;20033;-71
2022/09/20 06:53:55;;;;;;;1.58;0.30;;;10.20;99.90;;;;;;5055576;28;20503;-69
2022/09/20 06:56:25;;;;;;;1.02;0.60;;;10.20;99.90;;;;;;5055209;28;20036;-70
2022/09/20 06:58:51;;;;;;;1.55;0.80;;;10.30;99.90;;;;;;5038367;28;20133;-71
2022/09/20 07:01:18;;;;;;;0.30;0.30;;;10.50;99.90;;;;;;5054926;28;20122;-70
2022/09/20 07:03:44;;;;;;;3.70;0.73;;;;;;;;;;5055122;28;20507;-70
2022/09/20 07:06:10;;;;;;;2.40;0.50;;;10.70;99.90;;;;;;5054725;28;20047;-70
2022/09/20 07:08:36;;;;;;;3.33;0.50;;;11.00;99.90;;;;;;5054872;28;20106;-70
2022/09/20 07:11:16;;;;;;;2.35;0.93;;;11.10;99.90;;;;;;5038164;28;20076;-71
2022/09/20 07:13:49;;;;;;;1.15;0.60;;;11.40;99.90;;;;;;5038133;28;20044;-69
2022/09/20 07:16:14;;;;;;;1.10;0.55;;;11.60;99.90;;;;;;5038176;28;20040;-70
2022/09/20 07:18:41;;;;;;;0.40;0.40;;;11.90;99.90;;;;;;5054996;28;20036;-70
2022/09/20 07:21:15;;;;;;;0.85;0.57;;;11.90;99.90;;;;;;5054616;28;20064;-70
2022/09/20 07:23:41;;;;;;;3.75;0.60;;;12.20;99.90;;;;;;5054635;28;20051;-69
2022/09/20 07:26:20;;;;;;;0.45;0.45;;;12.10;99.90;;;;;;5054723;28;20052;-70
2022/09/20 07:28:47;;;;;;;0.38;0.32;;;12.20;99.90;;;;;;5054621;28;20063;-70
2022/09/20 07:31:13;;;;;;;0.80;0.70;;;12.30;99.90;;;;;;5037962;28;20041;-70
2022/09/20 07:33:38;;;;;;;1.83;0.40;;;12.30;99.90;;;;;;5054467;28;20036;-70
2022/09/20 07:36:04;;;;;;;0.28;0.28;;;12.30;99.90;;;;;;5054489;28;20473;-70
2022/09/20 07:38:30;;;;;;;1.00;0.60;;;12.30;99.90;;;;;;5037880;28;20059;-70
2022/09/20 07:40:57;;;;;;;2.78;0.40;;;12.30;99.90;;;;;;5038264;28;20487;-71
2022/09/20 07:43:23;;;;;;;1.98;0.38;;;12.30;99.90;;;;;;5054455;28;20105;-71
2022/09/20 07:45:54;;;;;;;0.52;0.20;;;12.30;99.90;;;;;;5054578;28;20506;-70
2022/09/20 07:48:40;;;;;;;1.17;0.45;;;12.30;99.90;;;;;;5054312;28;20040;-71
2022/09/20 07:51:12;;;;;;;1.20;0.38;;;12.30;99.90;;;;;;5054421;28;20514;-71
2022/09/20 07:53:39;;;;;;;2.53;0.50;;;12.40;99.90;;;;;;5038048;28;20395;-71
2022/09/20 07:56:06;;;;;;;0.47;0.30;;;12.40;99.90;;;;;;5039533;28;20573;-70
2022/09/20 07:58:33;;;;;;;0.85;0.60;;;12.50;99.90;;;;;;5058197;28;20407;-70
2022/09/20 08:01:02;;;;;;;0.50;0.35;;;12.50;99.90;;;;;;5057863;28;20049;-71
2022/09/20 08:03:32;;;;;;;2.75;0.50;;;12.60;99.90;;;;;;5057797;28;20044;-70
2022/09/20 08:06:00;;;;;;;2.95;0.50;;;12.60;99.90;;;;;;5041440;28;20093;-70
2022/09/20 08:08:26;;;;;;;1.75;0.38;;;12.70;99.90;;;;;;5057725;28;20119;-70
2022/09/20 08:10:54;;;;;;;2.65;0.30;;;12.70;99.90;;;;;;5075801;28;20039;-70
2022/09/20 08:13:19;;;;;;;1.00;0.50;;;12.80;99.90;;;;;;5041118;28;20072;-71
2022/09/20 08:15:46;;;;;;;0.30;0.30;;;12.90;99.90;;;;;;5008662;28;20373;-70
2022/09/20 08:18:15;;;;;;;0.22;0.22;;;12.90;99.90;;;;;;5057708;28;20043;-70
2022/09/20 08:20:40;;;;;;;1.33;0.32;;;12.90;99.90;;;;;;5041245;28;20135;-70
2022/09/20 08:23:08;;;;;;;0.28;0.28;;;13.00;99.90;;;;;;5057819;28;20088;-70
2022/09/20 08:25:33;;;;;;;0.35;0.35;;;13.00;99.90;;;;;;5057558;28;20044;-70
2022/09/20 08:28:00;;;;;;;0.20;0.20;;;13.10;99.90;;;;;;5040904;28;20540;-69
2022/09/20 08:30:25;;;;;;;0.98;0.40;;;13.20;99.90;;;;;;5057538;28;20032;-69
2022/09/20 08:32:52;;;;;;;0.65;0.30;;;13.90;99.90;;;;;;5040899;28;20105;-70
2022/09/20 08:35:18;;;;;;;0.65;0.30;;;13.40;99.90;;;;;;5041417;28;20083;-69
2022/09/20 08:37:45;;;;;;;0.95;0.35;;;13.40;99.90;;;;;;5057372;28;20076;-69
2022/09/20 08:40:14;;;;;;;0.68;0.30;;;13.50;99.90;;;;;;5057360;28;20057;-69
2022/09/20 08:42:43;;;;;;;0.30;0.30;;;13.40;99.90;;;;;;5057538;28;20381;-69
2022/09/20 08:45:21;;;;;;;0.22;0.22;;;13.50;99.90;;;;;;5057273;28;20389;-69
2022/09/20 08:47:57;;;;;;;0.20;0.20;;;13.50;99.90;;;;;;5057186;28;20044;-69
2022/09/20 08:50:23;;;;;;;0.28;0.20;;;13.40;99.80;;;;;;5057162;28;20171;-69
2022/09/20 08:52:56;;;;;;;1.33;0.30;;;13.40;99.20;;;;;;5040727;28;20142;-69
2022/09/20 08:55:26;;;;;;;0.20;0.20;;;13.50;99.60;;;;;;5040721;28;20047;-69
2022/09/20 08:57:57;;;;;;;0.20;0.20;;;13.50;99.00;;;;;;5056993;28;20132;-69
2022/09/20 09:00:31;;;;;;;0.25;0.22;;;13.60;98.50;;;;;;5057047;28;20089;-69
2022/09/20 09:03:04;;;;;;;0.63;0.32;;;13.70;98.60;;;;;;5040227;28;20044;-69
2022/09/20 09:05:37;;;;;;;1.83;0.40;;;13.70;97.50;;;;;;5056899;28;20044;-70
2022/09/20 09:08:15;;;;;;;3.50;0.40;;;13.70;95.90;;;;;;5056564;28;20098;-70
2022/09/20 09:10:44;;;;;;;1.73;0.60;;;13.80;95.90;;;;;;5040196;28;20036;-70
2022/09/20 09:13:21;;;;;;;0.90;0.30;;;13.80;95.30;;;;;;5056730;28;20045;-70
2022/09/20 09:15:53;;;;;;;0.30;0.30;;;13.80;96.60;;;;;;5056745;28;20457;-70
2022/09/20 09:18:18;;;;;;;0.32;0.32;;;13.80;96.40;;;;;;5056572;28;20041;-70
2022/09/20 09:20:45;;;;;;;1.35;0.30;;;13.80;96.50;;;;;;5056608;28;20472;-70
2022/09/20 09:23:25;;;;;;;1.60;0.52;;;13.90;97.10;;;;;;5039965;28;20037;-70
2022/09/20 09:25:53;;;;;;;1.60;0.20;;;13.90;95.60;;;;;;5056728;28;20039;-71
2022/09/20 09:28:30;;;;;;;0.98;0.28;;;14.00;97.30;;;;;;5039785;28;20119;-70
2022/09/20 09:31:12;;;;;;;0.63;0.30;;;14.10;96.40;;;;;;5056378;28;20047;-71
2022/09/20 09:33:45;;;;;;;0.40;0.40;;;14.10;96.40;;;;;;5040025;28;20479;-71
2022/09/20 09:36:24;;;;;;;0.47;0.22;;;14.30;95.30;;;;;;5056549;28;20045;-70
2022/09/20 09:39:10;;;;;;;0.30;0.20;;;14.50;95.70;;;;;;5056301;28;20055;-71
2022/09/20 09:41:36;;;;;;;0.55;0.20;;;;;;;;;;5056247;28;20044;-70
2022/09/20 09:44:09;;;;;;;1.95;0.63;;;14.80;94.70;;;;;;5039711;28;20044;-70
2022/09/20 09:46:38;;;;;;;2.30;0.63;;;14.80;94.50;;;;;;5056247;28;20400;-70
2022/09/20 09:49:06;;;;;;;0.20;0.20;;;14.80;93.90;;;;;;5056196;28;20044;-70
2022/09/20 09:51:33;;;;;;;0.38;0.20;;;14.70;93.60;;;;;;5056067;28;20040;-70
2022/09/20 09:53:59;;;;;;;0.75;0.40;;;14.70;93.70;;;;;;5039572;28;20488;-70
2022/09/20 09:56:46;;;;;;;2.10;0.50;;;14.60;92.30;;;;;;5056143;28;20048;-71
2022/09/20 09:59:41;;;;;;;0.47;0.40;;;14.40;93.50;;;;;;5039518;28;20369;-71
2022/09/20 10:02:44;;;;;;;0.38;0.32;;;14.40;94.30;;;;;;5039428;28;20048;-70
2022/09/20 10:05:42;;;;;;;3.22;0.40;;;14.30;93.50;;;;;;5055994;28;20373;-70
2022/09/20 10:08:29;;;;;;;3.42;0.70;;;14.40;94.80;;;;;;5051937;28;20079;-71
2022/09/20 10:11:13;;;;;;;0.20;0.20;;;14.50;95.20;;;;;;5039026;28;20121;-70
2022/09/20 10:13:51;;;;;;;0.40;0.38;;;14.70;93.80;;;;;;5056073;28;20480;-71
2022/09/20 10:16:46;;;;;;;0.47;0.30;;;14.70;91.80;;;;;;5055868;28;20044;-70
2022/09/20 10:19:36;;;;;;;0.20;0.20;;;14.80;90.40;;;;;;5054766;28;20043;-70
2022/09/20 10:22:33;;;;;;;1.33;0.82;;;14.90;89.90;;;;;;5055478;28;20105;-70
2022/09/20 10:25:02;;;;;;;0.28;0.28;;;15.10;87.90;;;;;;5055706;28;20040;-70
2022/09/20 10:27:48;;;;;;;1.30;0.30;;;15.30;87.50;;;;;;5055335;28;20044;-70
2022/09/20 10:30:15;;;;;;;2.63;0.38;;;15.60;89.00;;;;;;5055661;28;20123;-70
2022/09/20 10:33:04;;;;;;;0.40;0.30;;;15.70;85.70;;;;;;5055607;28;20391;-70
2022/09/20 10:35:36;;;;;;;0.38;0.35;;;15.70;87.10;;;;;;5038763;28;20032;-70
2022/09/20 10:38:25;;;;;;;0.32;0.28;;;15.70;87.70;;;;;;5055557;28;20395;-70
2022/09/20 10:43:59;;;;;;;2.05;0.50;;;15.70;85.80;;;;;;5055417;28;20040;-70
2022/09/20 10:47:01;;;;;;;0.35;0.35;;;15.60;83.20;;;;;;5054974;28;20105;-69
2022/09/20 10:49:27;;;;;;;0.98;0.43;;;15.70;79.70;;;;;;5038506;28;20170;-70
2022/09/20 10:52:40;;;;;;;0.45;0.20;;;15.60;78.40;;;;;;5055087;28;20047;-71
2022/09/20 10:55:34;;;;;;;1.13;0.50;;;15.60;69.50;;;;;;5031867;28;20048;-70
2022/09/20 10:58:29;;;;;;;3.65;0.55;;;15.50;67.70;;;;;;5055328;28;20101;-69
2022/09/20 11:01:10;;;;;;;2.20;0.40;;;15.40;55.40;;;;;;4985249;28;20143;-70
2022/09/20 11:03:54;;;;;;;0.40;0.35;;;15.40;68.00;;;;;;5055361;28;20044;-70
2022/09/20 11:06:26;;;;;;;1.88;0.40;;;15.50;64.40;;;;;;5038253;28;20052;-70
2022/09/20 11:08:56;;;;;;;0.90;0.40;;;15.50;68.10;;;;;;5054905;28;20046;-70
2022/09/20 11:11:34;;;;;;;1.65;0.55;;;15.50;69.90;;;;;;5055102;28;20077;-70
2022/09/20 11:14:27;;;;;;;0.38;0.20;;;15.60;73.40;;;;;;5054766;28;20036;-70
2022/09/20 11:17:04;;;;;;;0.20;0.20;;;15.80;66.30;;;;;;5038461;28;20506;-71
2022/09/20 11:19:47;;;;;;;0.20;0.10;;;16.00;64.90;;;;;;5054989;28;20053;-70
2022/09/20 11:22:33;;;;;;;0.35;0.15;;;16.30;64.60;;;;;;5038104;28;20051;-70
2022/09/20 11:25:12;;;;;;;0.60;0.30;;;16.50;62.30;;;;;;5038372;28;20047;-70
2022/09/20 11:27:45;;;;;;;1.73;0.40;;;16.50;55.40;;;;;;5038111;28;20123;-71
2022/09/20 11:30:13;;;;;;;0.22;0.20;;;16.30;54.20;;;;;;5054802;28;20441;-70
2022/09/20 11:32:46;;;;;;;0.57;0.22;;;16.30;47.40;;;;;;5058854;28;20048;-70
2022/09/20 11:35:14;;;;;;;0.98;0.40;;;16.30;44.40;;;;;;5041852;28;20119;-69
2022/09/20 11:37:46;;;;;;;1.00;0.20;;;16.30;56.10;;;;;;5041863;28;20055;-70
2022/09/20 11:40:19;;;;;;;6.25;0.55;;;16.30;50.80;;;;;;5058453;28;20083;-70
2022/09/20 11:42:46;;;;;;;0.45;0.22;;;16.40;59.50;;;;;;5058660;28;20047;-71
2022/09/20 11:45:12;;;;;;;0.30;0.20;;;16.40;58.70;;;;;;5058629;28;20045;-70
2022/09/20 11:47:45;;;;;;;1.75;0.40;;;16.50;51.10;;;;;;5041637;28;20043;-72
2022/09/20 11:50:37;;;;;;;0.22;0.20;;;16.60;55.70;;;;;;5075747;28;20063;-70
2022/09/20 11:53:30;;;;;;;0.17;0.17;;;16.50;30.10;;;;;;5041871;28;20047;-71
2022/09/20 11:56:21;;;;;;;1.55;0.50;;;16.40;18.10;;;;;;5058157;28;20036;-70
2022/09/20 11:58:54;;;;;;;;;;;16.40;27.60;;;;;;5058487;28;20041;-71
2022/09/20 12:01:34;;;;;;;3.67;0.65;;;16.50;40.40;;;;;;5058236;28;19916;-71
2022/09/20 12:04:12;;;;;;;0.55;0.30;;;16.50;44.30;;;;;;5057996;28;20124;-71
2022/09/20 12:06:40;;;;;;;1.52;0.50;;;16.40;32.80;;;;;;5057928;28;20048;-71
2022/09/20 12:09:26;;;;;;;0.93;0.22;;;16.30;52.70;;;;;;5041430;28;20043;-70
2022/09/20 12:11:52;;;;;;;1.05;0.25;;;16.20;46.70;;;;;;5058108;28;20468;-71
2022/09/20 12:14:20;;;;;;;1.02;0.40;;;16.30;48.50;;;;;;5057734;28;20076;-71
2022/09/20 12:16:48;;;;;;;0.85;0.35;;;16.30;50.80;;;;;;5057776;28;20131;-71
2022/09/20 12:19:35;;;;;;;2.20;0.40;;;16.20;55.10;;;;;;5057589;28;20154;-70
2022/09/20 12:22:02;;;;;;;1.85;0.28;;;16.10;54.50;;;;;;5057649;28;20045;-70
2022/09/20 12:24:34;;;;;;;3.65;0.40;;;16.10;53.50;;;;;;5057816;28;20411;-70
2022/09/20 12:27:28;;;;;;;0.13;0.10;;;16.00;52.10;;;;;;5057598;28;20099;-71
2022/09/20 12:30:15;;;;;;;1.48;0.30;;;15.80;38.50;;;;;;5040977;28;20040;-70
2022/09/20 12:32:45;;;;;;;1.08;0.30;;;15.80;41.70;;;;;;5057428;28;20105;-71
2022/09/20 12:35:35;;;;;;;0.32;0.32;;;15.90;45.10;;;;;;5041101;28;20049;-71
2022/09/20 12:38:19;;;;;;;0.82;0.38;;;16.10;45.10;;;;;;5057634;28;20467;-70
2022/09/20 12:41:04;;;;;;;2.17;0.43;;;16.30;47.70;;;;;;5057129;28;20048;-70
2022/09/20 12:43:33;;;;;;;0.15;0.15;;;16.20;30.00;;;;;;5040818;28;20040;-69
2022/09/20 12:45:59;;;;;;;0.95;0.20;;;16.20;29.30;;;;;;5057009;28;20044;-70
2022/09/20 12:48:36;;;;;;;0.47;0.20;;;16.30;40.60;;;;;;5057210;28;20033;-69
2022/09/20 12:54:08;;;;;;;0.45;0.25;;;17.00;31.50;;;;;;5057019;28;20072;-70
2022/09/20 12:56:37;;;;;;;0.60;0.30;;;16.90;38.20;;;;;;5041003;28;20506;-71
2022/09/20 12:59:06;;;;;;;1.92;0.20;;;16.80;30.60;;;;;;5056917;28;20044;-71
2022/09/20 13:01:36;;;;;;;4.25;0.43;;;16.70;36.50;;;;;;5056979;28;20044;-71
2022/09/20 13:04:40;;;;;;;1.33;0.30;;;16.40;32.90;;;;;;5056917;28;20044;-72
2022/09/20 13:07:31;;;;;;;0.85;0.20;;;16.30;34.10;;;;;;5040186;28;20105;-71
2022/09/20 13:10:00;;;;;;;3.00;0.50;;;16.20;38.00;;;;;;5040382;28;20051;-69
2022/09/20 13:12:26;;;;;;;1.10;0.40;;;16.30;28.80;;;;;;5057120;28;20055;-69
2022/09/20 13:14:53;;;;;;;0.52;0.30;;;16.40;32.20;;;;;;5040001;28;20041;-70
2022/09/20 13:17:29;;;;;;;0.13;0.13;;;16.60;32.10;;;;;;5056475;28;20079;-70
2022/09/20 13:19:56;;;;;;;1.13;0.30;;;16.50;12.60;;;;;;5056448;28;20060;-70
2022/09/20 13:22:28;;;;;;;2.75;0.28;;;16.30;25.80;;;;;;5023582;28;20041;-70
2022/09/20 13:24:59;;;;;;;2.60;0.45;;;16.30;25.60;;;;;;5039825;28;20093;-71
2022/09/20 13:27:33;;;;;;;0.43;0.15;;;16.40;51.10;;;;;;5039781;28;20051;-71
2022/09/20 13:30:19;;;;;;;0.13;0.13;;;16.90;46.50;;;;;;5039721;28;20046;-70
2022/09/20 13:32:50;;;;;;;0.35;0.17;;;16.90;1.00;;;;;;5056350;28;20036;-71
2022/09/20 13:35:26;;;;;;;1.00;0.52;;;16.90;1.00;;;;;;5039975;28;20647;-70
2022/09/20 13:38:00;;;;;;;1.05;0.20;;;16.70;11.70;;;;;;5039630;28;20040;-70
2022/09/20 13:40:41;;;;;;;0.98;0.28;;;16.60;22.60;;;;;;5056075;28;20098;-69
2022/09/20 13:43:28;;;;;;;0.75;0.22;;;16.50;29.60;;;;;;5056151;28;20056;-70
2022/09/20 13:45:57;;;;;;;1.10;0.38;;;16.40;19.70;;;;;;5055923;28;20071;-71
2022/09/20 13:48:29;;;;;;;1.05;0.30;;;16.30;21.20;;;;;;5056122;28;20044;-69
2022/09/20 13:50:55;;;;;;;0.65;0.30;;;16.20;20.60;;;;;;5022862;28;20045;-69
2022/09/20 13:53:23;;;;;;;0.10;0.10;;;16.20;34.60;;;;;;5038517;28;20062;-67
2022/09/20 13:55:49;;;;;;;0.95;0.28;;;16.10;25.80;;;;;;5056115;28;20585;-70
2022/09/20 13:58:28;;;;;;;0.60;0.30;;;16.10;31.80;;;;;;5055938;28;20119;-74
2022/09/20 14:01:00;;;;;;;0.40;0.30;;;16.00;41.30;;;;;;5039565;28;20045;-69
2022/09/20 14:03:27;;;;;;;0.38;0.30;;;16.10;39.70;;;;;;5055738;28;20051;-69